createdAt,value
2022-08-19T00:02:04.542Z,11.13
2022-08-19T00:04:37.319Z,10.32
2022-08-19T00:07:07.110Z,10.55
2022-08-19T00:09:34.788Z,11.00
2022-08-19T00:12:02.536Z,11.50
2022-08-19T00:14:32.388Z,11.85
2022-08-19T00:17:00.013Z,10.80
2022-08-19T00:19:26.987Z,10.80
2022-08-19T00:21:54.400Z,11.75
2022-08-19T00:24:21.726Z,11.45
2022-08-19T00:26:49.064Z,11.23
2022-08-19T00:29:20.993Z,11.20
2022-08-19T00:31:50.757Z,11.90
2022-08-19T00:34:18.099Z,11.60
2022-08-19T00:36:45.820Z,10.65
2022-08-19T00:39:13.764Z,11.30
2022-08-19T00:41:41.437Z,11.70
2022-08-19T00:44:27.110Z,11.35
2022-08-19T00:46:59.968Z,10.48
2022-08-19T00:49:46.556Z,10.88
2022-08-19T00:52:19.958Z,11.88
2022-08-19T00:54:52.651Z,11.10
2022-08-19T00:57:35.220Z,11.93
2022-08-19T01:00:05.630Z,10.93
2022-08-19T01:02:34.086Z,11.13
2022-08-19T01:05:07.373Z,11.07
2022-08-19T01:07:38.258Z,11.00
2022-08-19T01:10:14.926Z,11.07
2022-08-19T01:12:42.218Z,10.80
2022-08-19T01:15:15.048Z,11.32
2022-08-19T01:17:43.952Z,12.00
2022-08-19T01:20:20.104Z,10.95
2022-08-19T01:22:58.500Z,11.15
2022-08-19T01:25:40.525Z,10.98
2022-08-19T01:28:10.595Z,11.20
2022-08-19T01:30:38.322Z,10.82
2022-08-19T01:33:06.555Z,10.55
2022-08-19T01:35:35.864Z,10.88
2022-08-19T01:38:09.418Z,10.60
2022-08-19T01:40:40.972Z,11.30
2022-08-19T01:43:08.776Z,11.88
2022-08-19T01:45:37.188Z,11.65
2022-08-19T01:48:04.906Z,11.50
2022-08-19T01:50:34.452Z,11.43
2022-08-19T01:53:06.747Z,11.50
2022-08-19T01:55:40.871Z,11.27
2022-08-19T01:58:22.072Z,11.68
2022-08-19T02:00:49.669Z,12.23
2022-08-19T02:03:17.274Z,11.57
2022-08-19T02:05:46.653Z,11.40
2022-08-19T02:08:13.798Z,10.88
2022-08-19T02:10:44.563Z,11.00
2022-08-19T02:13:14.444Z,11.35
2022-08-19T02:15:42.305Z,11.30
2022-08-19T02:18:09.438Z,11.00
2022-08-19T02:20:39.504Z,11.27
2022-08-19T02:23:13.565Z,11.82
2022-08-19T02:25:48.984Z,11.40
2022-08-19T02:28:18.816Z,11.25
2022-08-19T02:30:47.667Z,11.18
2022-08-19T02:33:15.077Z,11.60
2022-08-19T02:35:47.285Z,12.43
2022-08-19T02:38:27.144Z,12.07
2022-08-19T02:40:59.184Z,11.45
2022-08-19T02:43:28.524Z,11.27
2022-08-19T02:45:56.023Z,11.55
2022-08-19T02:48:25.603Z,11.93
2022-08-19T02:50:56.028Z,12.30
2022-08-19T02:53:28.579Z,11.38
2022-08-19T02:55:55.914Z,12.10
2022-08-19T02:58:25.201Z,12.80
2022-08-19T03:00:58.259Z,11.13
2022-08-19T03:03:25.428Z,12.57
2022-08-19T03:05:56.597Z,12.40
2022-08-19T03:08:26.504Z,12.65
2022-08-19T03:10:54.831Z,12.63
2022-08-19T03:13:22.470Z,13.20
2022-08-19T03:15:50.044Z,13.27
2022-08-19T03:18:18.151Z,12.90
2022-08-19T03:20:49.350Z,12.43
2022-08-19T03:23:17.843Z,12.85
2022-08-19T03:26:03.217Z,13.55
2022-08-19T03:28:35.523Z,13.52
2022-08-19T03:31:43.770Z,14.63
2022-08-19T03:33:58.506Z,14.07
2022-08-19T03:36:28.558Z,12.95
2022-08-19T03:39:02.005Z,14.20
2022-08-19T03:41:45.449Z,13.70
2022-08-19T03:44:27.290Z,13.27
2022-08-19T03:46:58.629Z,14.05
2022-08-19T03:49:30.664Z,14.48
2022-08-19T03:52:01.296Z,13.70
2022-08-19T03:54:29.298Z,14.27
2022-08-19T03:56:58.601Z,13.93
2022-08-19T03:59:35.095Z,14.05
2022-08-19T04:02:09.933Z,14.43
2022-08-19T04:04:39.868Z,14.13
2022-08-19T04:07:07.678Z,14.00
2022-08-19T04:09:37.553Z,13.75
2022-08-19T04:12:06.537Z,14.00
2022-08-19T04:14:34.763Z,14.25
2022-08-19T04:17:05.876Z,14.18
2022-08-19T04:19:35.912Z,14.18
2022-08-19T04:22:03.933Z,14.35
2022-08-19T04:24:31.946Z,15.05
2022-08-19T04:27:05.063Z,15.00
2022-08-19T04:29:32.310Z,14.93
2022-08-19T04:32:09.142Z,15.10
2022-08-19T04:35:01.237Z,14.25
2022-08-19T04:37:25.709Z,14.63
2022-08-19T04:40:11.636Z,14.63
2022-08-19T04:42:41.317Z,14.35
2022-08-19T04:45:14.323Z,15.30
2022-08-19T04:50:19.675Z,15.30
2022-08-19T04:52:46.779Z,15.45
2022-08-19T04:55:14.642Z,15.27
2022-08-19T04:57:41.703Z,14.95
2022-08-19T05:00:11.396Z,14.93
2022-08-19T05:02:39.851Z,14.48
2022-08-19T05:05:07.677Z,15.00
2022-08-19T05:07:35.261Z,14.35
2022-08-19T05:10:03.664Z,14.68
2022-08-19T05:12:30.726Z,14.07
2022-08-19T05:14:59.598Z,14.50
2022-08-19T05:17:30.304Z,14.50
2022-08-19T05:20:19.010Z,14.85
2022-08-19T05:22:48.280Z,15.05
2022-08-19T05:25:20.683Z,15.43
2022-08-19T05:27:48.669Z,14.88
2022-08-19T05:30:17.340Z,15.00
2022-08-19T05:32:44.900Z,15.40
2022-08-19T05:35:12.786Z,15.40
2022-08-19T05:37:43.308Z,15.57
2022-08-19T05:40:11.505Z,15.88
2022-08-19T05:42:38.968Z,15.45
2022-08-19T05:45:07.520Z,15.98
2022-08-19T05:47:36.045Z,15.80
2022-08-19T05:50:09.766Z,15.48
2022-08-19T05:52:39.324Z,14.88
2022-08-19T05:55:13.425Z,14.93
2022-08-19T05:57:40.880Z,14.65
2022-08-19T06:00:12.562Z,14.57
2022-08-19T06:02:40.930Z,14.82
2022-08-19T06:05:10.018Z,14.15
2022-08-19T06:07:39.030Z,14.57
2022-08-19T06:10:10.215Z,14.30
2022-08-19T06:12:38.260Z,13.57
2022-08-19T06:15:12.703Z,13.82
2022-08-19T06:17:40.394Z,13.23
2022-08-19T06:20:12.903Z,13.57
2022-08-19T06:22:47.009Z,12.55
2022-08-19T06:25:15.744Z,12.52
2022-08-19T06:28:14.596Z,12.45
2022-08-19T06:30:30.631Z,11.75
2022-08-19T06:32:57.646Z,12.60
2022-08-19T06:35:24.870Z,12.57
2022-08-19T06:37:53.571Z,11.38
2022-08-19T06:40:20.741Z,11.60
2022-08-19T06:42:54.475Z,11.43
2022-08-19T06:45:24.820Z,12.18
2022-08-19T06:47:56.877Z,11.52
2022-08-19T06:50:26.771Z,11.10
2022-08-19T06:52:55.275Z,11.63
2022-08-19T06:55:22.764Z,11.48
2022-08-19T06:57:55.239Z,10.35
2022-08-19T07:00:22.698Z,10.40
2022-08-19T07:02:55.859Z,10.63
2022-08-19T07:05:26.620Z,10.60
2022-08-19T07:07:53.763Z,10.55
2022-08-19T07:10:24.857Z,10.45
2022-08-19T07:12:52.985Z,10.50
2022-08-19T07:15:22.347Z,10.02
2022-08-19T07:17:52.439Z,9.77
2022-08-19T07:20:19.890Z,9.88
2022-08-19T07:22:46.890Z,9.60
2022-08-19T07:25:14.339Z,9.85
2022-08-19T07:27:41.428Z,9.48
2022-08-19T07:30:14.412Z,9.63
2022-08-19T07:32:42.072Z,9.13
2022-08-19T07:35:10.634Z,9.00
2022-08-19T07:37:38.272Z,9.10
2022-08-19T07:40:08.518Z,9.02
2022-08-19T07:42:35.695Z,9.45
2022-08-19T07:45:03.540Z,8.93
2022-08-19T07:47:49.333Z,8.70
2022-08-19T07:50:21.007Z,8.98
2022-08-19T07:52:50.735Z,8.45
2022-08-19T07:55:42.620Z,8.05
2022-08-19T07:58:17.757Z,8.60
2022-08-19T08:00:47.972Z,7.90
2022-08-19T08:03:17.815Z,8.10
2022-08-19T08:06:04.045Z,8.35
2022-08-19T08:08:49.996Z,8.25
2022-08-19T08:11:21.252Z,7.88
2022-08-19T08:14:00.892Z,7.65
2022-08-19T08:16:39.618Z,7.93
2022-08-19T08:19:22.948Z,7.97
2022-08-19T08:22:07.254Z,7.28
2022-08-19T08:24:36.910Z,6.90
2022-08-19T08:27:11.430Z,7.03
2022-08-19T08:29:38.726Z,7.00
2022-08-19T08:32:14.743Z,7.50
2022-08-19T08:34:42.691Z,7.07
2022-08-19T08:37:09.802Z,7.55
2022-08-19T08:39:36.860Z,6.80
2022-08-19T08:42:27.204Z,7.10
2022-08-19T08:45:07.010Z,7.10
2022-08-19T08:47:42.030Z,6.90
2022-08-19T08:50:20.700Z,6.80
2022-08-19T08:52:57.059Z,7.30
2022-08-19T08:55:36.477Z,7.70
2022-08-19T08:58:20.812Z,7.18
2022-08-19T09:00:50.878Z,6.88
2022-08-19T09:03:26.830Z,6.72
2022-08-19T09:06:06.180Z,7.28
2022-08-19T09:09:15.216Z,6.65
2022-08-19T09:12:05.638Z,6.82
2022-08-19T09:14:52.413Z,6.88
2022-08-19T09:17:31.467Z,6.85
2022-08-19T09:20:14.840Z,6.85
2022-08-19T09:22:46.482Z,7.35
2022-08-19T09:25:26.821Z,7.10
2022-08-19T09:28:02.613Z,7.35
2022-08-19T09:30:35.129Z,6.80
2022-08-19T09:33:02.358Z,7.18
2022-08-19T09:35:31.266Z,7.28
2022-08-19T09:38:00.477Z,8.02
2022-08-19T09:40:30.934Z,6.65
2022-08-19T09:43:03.372Z,7.65
2022-08-19T09:45:37.193Z,7.15
2022-08-19T09:48:04.677Z,7.13
2022-08-19T09:50:36.800Z,7.00
2022-08-19T09:53:03.878Z,7.65
2022-08-19T09:55:33.886Z,7.15
2022-08-19T09:58:03.091Z,7.25
2022-08-19T10:00:32.008Z,7.43
2022-08-19T10:02:59.234Z,7.22
2022-08-19T10:05:44.942Z,6.90
2022-08-19T10:08:26.497Z,8.68
2022-08-19T10:10:56.037Z,6.63
2022-08-19T10:13:27.836Z,7.38
2022-08-19T10:16:02.703Z,7.28
2022-08-19T10:18:29.718Z,7.03
2022-08-19T10:21:08.586Z,6.90
2022-08-19T10:23:38.778Z,6.45
2022-08-19T10:26:07.964Z,6.93
2022-08-19T10:28:40.489Z,6.50
2022-08-19T10:31:59.970Z,6.60
2022-08-19T10:34:17.607Z,6.97
2022-08-19T10:36:56.367Z,6.80
2022-08-19T10:39:42.356Z,7.13
2022-08-19T10:42:14.748Z,7.38
2022-08-19T10:44:42.544Z,6.30
2022-08-19T10:47:17.785Z,6.47
2022-08-19T10:50:12.073Z,6.90
2022-08-19T10:52:49.046Z,6.90
2022-08-19T10:55:39.949Z,6.53
2022-08-19T10:58:16.923Z,6.25
2022-08-19T11:00:44.902Z,6.35
2022-08-19T11:03:13.553Z,6.32
2022-08-19T11:05:43.218Z,6.05
2022-08-19T11:08:23.446Z,6.63
2022-08-19T11:10:57.535Z,6.35
2022-08-19T11:13:25.592Z,6.22
2022-08-19T11:16:06.555Z,6.45
2022-08-19T11:18:44.529Z,6.68
2022-08-19T11:21:30.278Z,6.10
2022-08-19T11:24:02.945Z,6.18
2022-08-19T11:29:00.360Z,6.15
2022-08-19T11:31:34.486Z,6.13
2022-08-19T11:34:04.356Z,5.82
2022-08-19T11:36:33.574Z,6.32
2022-08-19T11:39:01.264Z,5.78
2022-08-19T11:41:28.879Z,6.00
2022-08-19T11:43:56.801Z,5.85
2022-08-19T11:46:28.473Z,6.05
2022-08-19T11:49:00.043Z,5.97
2022-08-19T11:51:28.180Z,5.90
2022-08-19T11:53:57.584Z,6.10
2022-08-19T11:56:26.580Z,12.55
2022-08-19T11:58:55.552Z,5.90
2022-08-19T12:01:25.107Z,6.07
2022-08-19T12:03:55.352Z,5.72
2022-08-19T12:06:29.846Z,5.55
2022-08-19T12:09:01.732Z,7.70
2022-08-19T12:11:29.557Z,6.10
2022-08-19T12:16:31.737Z,7.82
2022-08-19T12:19:05.209Z,6.10
2022-08-19T12:21:36.434Z,5.95
2022-08-19T12:24:06.700Z,6.20
2022-08-19T12:26:35.892Z,9.30
2022-08-19T12:29:23.390Z,6.05
2022-08-19T12:31:51.964Z,5.80
2022-08-19T12:34:21.004Z,6.50
2022-08-19T12:36:50.314Z,6.43
2022-08-19T12:39:18.230Z,6.00
2022-08-19T12:41:51.351Z,6.18
2022-08-19T12:44:29.242Z,7.38
2022-08-19T12:47:00.069Z,6.57
2022-08-19T12:49:52.629Z,5.93
2022-08-19T12:52:19.856Z,6.70
2022-08-19T12:54:53.977Z,7.18
2022-08-19T12:57:32.933Z,7.07
2022-08-19T13:00:26.726Z,6.88
2022-08-19T13:02:53.736Z,6.10
2022-08-19T13:05:30.039Z,6.60
2022-08-19T13:08:00.686Z,6.43
2022-08-19T13:10:36.481Z,7.30
2022-08-19T13:13:07.720Z,6.78
2022-08-19T13:15:40.586Z,6.72
2022-08-19T13:18:11.295Z,7.07
2022-08-19T13:20:41.617Z,6.75
2022-08-19T13:23:10.398Z,7.40
2022-08-19T13:25:37.898Z,7.20
2022-08-19T13:28:07.502Z,6.97
2022-08-19T13:31:00.692Z,7.10
2022-08-19T13:33:27.883Z,7.18
2022-08-19T13:36:01.558Z,6.90
2022-08-19T13:38:29.230Z,9.98
2022-08-19T13:40:57.000Z,7.05
2022-08-19T13:43:27.708Z,7.05
2022-08-19T13:45:57.690Z,7.18
2022-08-19T13:48:27.769Z,7.57
2022-08-19T13:50:55.665Z,7.35
2022-08-19T13:53:24.625Z,7.35
2022-08-19T13:55:52.476Z,7.15
2022-08-19T13:58:23.654Z,7.30
2022-08-19T14:00:52.208Z,7.25
2022-08-19T14:03:20.462Z,7.13
2022-08-19T14:05:48.020Z,7.53
2022-08-19T14:08:15.236Z,7.50
2022-08-19T14:10:45.282Z,7.50
2022-08-19T14:13:18.338Z,6.70
2022-08-19T14:15:46.184Z,7.15
2022-08-19T14:18:13.193Z,7.10
2022-08-19T14:20:43.392Z,6.82
2022-08-19T14:23:11.306Z,7.30
2022-08-19T14:25:38.772Z,8.55
2022-08-19T14:28:05.928Z,6.72
2022-08-19T14:30:39.050Z,7.40
2022-08-19T14:33:08.185Z,7.32
2022-08-19T14:35:40.412Z,6.72
2022-08-19T14:38:28.227Z,6.88
2022-08-19T14:41:28.268Z,6.97
2022-08-19T14:43:56.128Z,7.60
2022-08-19T14:46:28.211Z,7.43
2022-08-19T14:48:57.605Z,7.40
2022-08-19T14:51:30.178Z,7.13
2022-08-19T14:53:57.854Z,7.32
2022-08-19T14:56:29.056Z,7.55
2022-08-19T14:59:00.172Z,7.13
2022-08-19T15:01:28.671Z,7.63
2022-08-19T15:03:55.872Z,8.18
2022-08-19T15:06:25.280Z,7.68
2022-08-19T15:08:55.164Z,7.72
2022-08-19T15:11:28.314Z,7.50
2022-08-19T15:13:57.245Z,8.00
2022-08-19T15:16:26.317Z,7.72
2022-08-19T15:19:00.691Z,7.95
2022-08-19T15:21:30.372Z,7.88
2022-08-19T15:23:59.892Z,8.45
2022-08-19T15:26:29.079Z,7.82
2022-08-19T15:28:57.016Z,8.48
2022-08-19T15:31:28.370Z,8.18
2022-08-19T15:34:00.423Z,8.33
2022-08-19T15:36:28.455Z,8.02
2022-08-19T15:38:58.933Z,8.07
2022-08-19T15:41:30.919Z,7.57
2022-08-19T15:44:09.804Z,7.70
2022-08-19T15:46:42.726Z,7.88
2022-08-19T15:49:12.554Z,7.88
2022-08-19T15:51:43.023Z,8.30
2022-08-19T15:54:15.625Z,8.52
2022-08-19T15:57:06.232Z,8.27
2022-08-19T15:59:53.781Z,8.70
2022-08-19T16:02:44.625Z,8.25
2022-08-19T16:05:41.323Z,8.07
2022-08-19T16:08:09.839Z,8.25
2022-08-19T16:10:39.674Z,8.50
2022-08-19T16:13:06.941Z,9.88
2022-08-19T16:15:34.222Z,8.13
2022-08-19T16:18:04.364Z,8.65
2022-08-19T16:20:33.162Z,8.32
2022-08-19T16:23:04.905Z,9.80
2022-08-19T16:25:31.990Z,8.02
2022-08-19T16:28:06.486Z,8.55
2022-08-19T16:30:37.479Z,8.25
2022-08-19T16:33:04.661Z,9.48
2022-08-19T16:35:31.764Z,8.55
2022-08-19T16:37:58.706Z,8.63
2022-08-19T16:40:25.782Z,8.30
2022-08-19T16:42:53.627Z,8.27
2022-08-19T16:45:21.931Z,8.35
2022-08-19T16:47:48.998Z,7.65
2022-08-19T16:50:22.140Z,8.43
2022-08-19T16:52:52.335Z,7.63
2022-08-19T16:55:22.115Z,8.35
2022-08-19T16:57:50.630Z,8.07
2022-08-19T17:00:17.911Z,8.02
2022-08-19T17:02:44.928Z,7.80
2022-08-19T17:05:11.962Z,8.35
2022-08-19T17:07:38.937Z,7.80
2022-08-19T17:10:06.801Z,8.18
2022-08-19T17:12:34.700Z,12.40
2022-08-19T17:15:04.462Z,8.07
2022-08-19T17:17:33.158Z,7.97
2022-08-19T17:20:02.106Z,12.50
2022-08-19T17:22:29.811Z,8.43
2022-08-19T17:24:58.332Z,7.60
2022-08-19T17:27:31.468Z,7.38
2022-08-19T17:30:02.641Z,8.27
2022-08-19T17:43:42.626Z,8.45
2022-08-19T17:46:18.086Z,8.05
2022-08-19T17:48:52.842Z,8.50
2022-08-19T17:51:40.225Z,8.70
2022-08-19T17:54:11.311Z,8.43
2022-08-19T17:56:38.456Z,9.52
2022-08-19T17:59:08.445Z,9.05
2022-08-19T18:01:51.998Z,8.65
2022-08-19T18:04:24.494Z,8.07
2022-08-19T18:06:52.982Z,9.02
2022-08-19T18:09:24.473Z,8.82
2022-08-19T18:11:54.440Z,9.00
2022-08-19T18:14:33.808Z,9.23
2022-08-19T18:17:09.142Z,9.48
2022-08-19T18:19:43.568Z,9.63
2022-08-19T18:22:31.334Z,9.68
2022-08-19T18:24:59.349Z,7.80
2022-08-19T18:27:28.027Z,9.90
2022-08-19T18:29:59.387Z,9.40
2022-08-19T18:32:34.020Z,9.38
2022-08-19T18:35:06.470Z,8.88
2022-08-19T18:37:33.490Z,9.10
2022-08-19T18:40:18.979Z,8.70
2022-08-19T18:43:04.754Z,9.38
2022-08-19T18:45:50.534Z,9.60
2022-08-19T18:48:36.319Z,8.95
2022-08-19T18:51:04.407Z,9.30
2022-08-19T18:53:34.928Z,9.27
2022-08-19T18:56:01.983Z,9.07
2022-08-19T18:58:34.219Z,9.18
2022-08-19T19:01:38.707Z,8.93
2022-08-19T19:04:11.986Z,9.07
2022-08-19T19:06:42.289Z,9.95
2022-08-19T19:09:19.668Z,9.80
2022-08-19T19:11:52.056Z,9.30
2022-08-19T19:14:48.201Z,9.77
2022-08-19T19:17:17.235Z,9.27
2022-08-19T19:19:44.555Z,9.75
2022-08-19T19:22:19.697Z,10.35
2022-08-19T19:24:47.432Z,9.73
2022-08-19T19:27:18.537Z,10.18
2022-08-19T19:29:49.677Z,9.93
2022-08-19T19:32:39.021Z,9.85
2022-08-19T19:35:10.635Z,10.38
2022-08-19T19:37:37.687Z,9.25
2022-08-19T19:40:05.639Z,9.27
2022-08-19T19:42:32.825Z,10.13
2022-08-19T19:45:00.418Z,9.88
2022-08-19T19:47:28.513Z,9.98
2022-08-19T19:50:14.720Z,9.52
2022-08-19T19:52:46.304Z,9.93
2022-08-19T19:55:15.745Z,10.02
2022-08-19T19:57:42.776Z,9.95
2022-08-19T20:00:12.814Z,10.05
2022-08-19T20:02:39.842Z,10.50
2022-08-19T20:05:07.434Z,10.85
2022-08-19T20:07:54.338Z,10.93
2022-08-19T20:10:21.582Z,10.23
2022-08-19T20:12:48.615Z,10.30
2022-08-19T20:15:15.708Z,10.43
2022-08-19T20:17:43.026Z,10.25
2022-08-19T20:20:14.049Z,10.00
2022-08-19T20:22:47.477Z,10.20
2022-08-19T20:25:18.416Z,10.15
2022-08-19T20:27:50.065Z,9.70
2022-08-19T20:30:21.530Z,9.32
2022-08-19T20:32:50.893Z,10.02
2022-08-19T20:35:21.732Z,10.23
2022-08-19T20:37:54.893Z,9.50
2022-08-19T20:40:25.600Z,10.23
2022-08-19T20:42:54.365Z,10.38
2022-08-19T20:45:32.815Z,11.30
2022-08-19T20:48:03.267Z,9.30
2022-08-19T20:50:33.471Z,10.20
2022-08-19T20:53:01.062Z,10.23
2022-08-19T20:55:30.483Z,10.02
2022-08-19T20:57:58.725Z,10.55
2022-08-19T21:00:26.062Z,10.48
2022-08-19T21:02:53.066Z,10.20
2022-08-19T21:05:20.180Z,10.38
2022-08-19T21:07:47.188Z,11.07
2022-08-19T21:10:15.384Z,10.80
2022-08-19T21:12:44.372Z,11.57
2022-08-19T21:15:12.140Z,11.25
2022-08-19T21:17:40.075Z,11.65
2022-08-19T21:20:09.897Z,11.20
2022-08-19T21:22:37.210Z,11.30
2022-08-19T21:25:05.501Z,11.25
2022-08-19T21:27:33.012Z,10.02
2022-08-19T21:30:00.050Z,10.02
2022-08-19T21:32:26.997Z,10.55
2022-08-19T21:34:54.164Z,9.90
2022-08-19T21:37:25.041Z,9.65
2022-08-19T21:39:54.538Z,10.50
2022-08-19T21:42:25.192Z,9.57
2022-08-19T21:44:52.406Z,9.90
2022-08-19T21:47:19.391Z,9.88
2022-08-19T21:49:46.386Z,10.32
2022-08-19T21:52:13.651Z,10.45
2022-08-19T21:54:40.692Z,9.85
2022-08-19T21:57:10.807Z,10.07
2022-08-19T21:59:44.093Z,9.43
2022-08-19T22:02:21.795Z,9.68
2022-08-19T22:04:53.613Z,10.75
2022-08-19T22:07:22.227Z,9.63
2022-08-19T22:09:51.548Z,9.25
2022-08-19T22:12:28.388Z,9.80
2022-08-19T22:14:56.978Z,9.60
2022-08-19T22:17:24.629Z,9.60
2022-08-19T22:19:53.705Z,9.00
2022-08-19T22:22:32.685Z,9.40
2022-08-19T22:25:14.372Z,9.57
2022-08-19T22:28:03.924Z,8.68
2022-08-19T22:30:35.212Z,9.13
2022-08-19T22:33:07.994Z,9.52
2022-08-19T22:35:37.740Z,9.82
2022-08-19T22:38:07.344Z,9.85
2022-08-19T22:40:39.406Z,9.77
2022-08-19T22:43:14.428Z,10.40
2022-08-19T22:45:42.690Z,9.25
2022-08-19T22:48:14.152Z,9.40
2022-08-19T22:50:44.363Z,9.63
2022-08-19T22:53:12.336Z,9.63
2022-08-19T22:55:39.519Z,9.65
2022-08-19T22:58:06.593Z,9.70
2022-08-19T23:00:34.501Z,9.95
2022-08-19T23:03:02.290Z,10.07
2022-08-19T23:05:29.994Z,9.95
2022-08-19T23:07:58.719Z,9.60
2022-08-19T23:10:29.151Z,9.30
2022-08-19T23:13:00.212Z,10.80
2022-08-19T23:15:31.735Z,10.20
2022-08-19T23:18:01.565Z,10.43
2022-08-19T23:20:34.489Z,10.43
2022-08-19T23:25:55.016Z,11.25
2022-08-19T23:28:41.751Z,10.50
2022-08-19T23:31:11.455Z,10.80
2022-08-19T23:33:51.090Z,9.68
2022-08-19T23:36:19.996Z,9.70
2022-08-19T23:38:51.945Z,10.25
2022-08-19T23:41:21.608Z,10.27
2022-08-19T23:43:51.397Z,10.68
2022-08-19T23:46:27.732Z,10.80
2022-08-19T23:48:56.929Z,10.45
2022-08-19T23:51:24.625Z,10.40
2022-08-19T23:53:51.666Z,10.20
2022-08-19T23:56:18.666Z,10.50
2022-08-19T23:58:47.138Z,10.65
